Terminal Aerodrome Forecast
Issued by NWS Tulsa, OK

Home | Current Version | Previous Version | Text Only | Print | Product List | Glossary On
Versions: 1 2 3 4 5 6 7 8 9 10 11 12 13 14 15 16
000
FTUS44 KTSA 201700
TAFTUL
TAF
KTUL 201737Z 2018/2118 18009KT P6SM SCT020 BKN035
     FM210100 17005KT P6SM SCT250
     FM211000 19005KT 5SM BR SCT250
     FM211300 36005KT P6SM VCTS SCT025CB BKN050
     FM211600 01012G18KT P6SM SCT250=

USA.gov is the U.S. government's official web portal to all federal, state and local government web resources and services.